createdAt,value
2018-12-10T00:01:42.615Z,99898.27
2018-12-10T00:04:10.163Z,99891.14
2018-12-10T00:06:37.679Z,99888.22
2018-12-10T00:09:05.682Z,99898.66
2018-12-10T00:11:33.308Z,99899.89
2018-12-10T00:14:00.786Z,99895.91
2018-12-10T00:16:28.320Z,99888.20
2018-12-10T00:18:55.891Z,99908.77
2018-12-10T00:21:23.465Z,99900.99
2018-12-10T00:23:50.906Z,99915.92
2018-12-10T00:26:18.359Z,99928.15
2018-12-10T00:28:45.826Z,99941.17
2018-12-10T00:31:13.277Z,99953.47
2018-12-10T00:33:40.693Z,99967.12
2018-12-10T00:36:08.134Z,99973.96
2018-12-10T00:38:35.654Z,99973.66
2018-12-10T00:41:03.106Z,99971.80
2018-12-10T00:43:30.562Z,99975.05
2018-12-10T00:45:58.037Z,99982.73
2018-12-10T00:48:25.491Z,99982.42
2018-12-10T00:50:52.916Z,99987.50
2018-12-10T00:53:20.384Z,99995.44
2018-12-10T00:55:47.793Z,99994.13
2018-12-10T00:58:15.308Z,99995.38
2018-12-10T01:00:42.756Z,99992.05
2018-12-10T01:03:10.252Z,100000.50
2018-12-10T01:05:37.777Z,100001.40
2018-12-10T01:08:05.264Z,100007.50
2018-12-10T01:10:32.782Z,100007.59
2018-12-10T01:13:00.196Z,100013.63
2018-12-10T01:15:27.696Z,100016.47
2018-12-10T01:17:55.146Z,100014.92
2018-12-10T01:20:22.626Z,100012.31
2018-12-10T01:22:50.040Z,100013.33
2018-12-10T01:25:17.472Z,100010.93
2018-12-10T01:27:44.992Z,100019.47
2018-12-10T01:30:12.448Z,100019.25
2018-12-10T01:32:39.918Z,100022.62
2018-12-10T01:35:07.380Z,100037.94
2018-12-10T01:37:34.929Z,100039.50
2018-12-10T01:40:02.483Z,100043.64
2018-12-10T01:42:29.891Z,100045.42
2018-12-10T01:44:57.354Z,100032.48
2018-12-10T01:47:24.848Z,100049.72
2018-12-10T01:49:52.323Z,100049.96
2018-12-10T01:52:19.773Z,100043.67
2018-12-10T01:54:47.205Z,100047.19
2018-12-10T01:57:14.697Z,100056.98
2018-12-10T01:59:42.134Z,100065.16
2018-12-10T02:02:09.696Z,100063.86
2018-12-10T02:04:37.138Z,100062.02
2018-12-10T02:07:04.569Z,100063.70
2018-12-10T02:09:31.988Z,100066.30
2018-12-10T02:11:59.450Z,100061.81
2018-12-10T02:14:26.909Z,100067.89
2018-12-10T02:16:54.357Z,100069.05
2018-12-10T02:19:21.901Z,100071.88
2018-12-10T02:21:49.351Z,100066.64
2018-12-10T02:24:16.799Z,100069.25
2018-12-10T02:26:44.216Z,100067.89
2018-12-10T02:29:13.436Z,100072.72
2018-12-10T02:31:41.124Z,100085.30
2018-12-10T02:34:08.592Z,100088.55
2018-12-10T02:36:36.049Z,100087.45
2018-12-10T02:39:04.945Z,100088.90
2018-12-10T02:41:32.495Z,100086.34
2018-12-10T02:43:59.913Z,100097.47
2018-12-10T02:46:27.389Z,100103.69
2018-12-10T02:48:54.858Z,100099.45
2018-12-10T02:51:22.303Z,100100.41
2018-12-10T02:53:49.790Z,100102.00
2018-12-10T02:56:17.244Z,100110.11
2018-12-10T02:58:44.665Z,100112.14
2018-12-10T03:01:12.089Z,100111.41
2018-12-10T03:03:39.537Z,100114.35
2018-12-10T03:06:07.058Z,100128.03
2018-12-10T03:08:34.598Z,100134.28
2018-12-10T03:11:02.085Z,100134.52
2018-12-10T03:13:29.635Z,100134.11
2018-12-10T03:15:57.192Z,100137.66
2018-12-10T03:18:24.616Z,100134.06
2018-12-10T03:20:52.982Z,100136.55
2018-12-10T03:23:20.527Z,100137.92
2018-12-10T03:25:47.985Z,100145.69
2018-12-10T03:28:15.446Z,100133.36
2018-12-10T03:30:43.004Z,100133.59
2018-12-10T03:33:10.569Z,100128.10
2018-12-10T03:35:38.033Z,100125.05
2018-12-10T03:38:05.427Z,100140.22
2018-12-10T03:40:32.907Z,100134.90
2018-12-10T03:43:00.364Z,100140.70
2018-12-10T03:45:27.747Z,100149.70
2018-12-10T03:47:55.312Z,100157.12
2018-12-10T03:50:22.849Z,100155.09
2018-12-10T03:52:50.318Z,100157.78
2018-12-10T03:55:17.774Z,100162.61
2018-12-10T03:57:45.173Z,100165.88
2018-12-10T04:00:12.645Z,100161.45
2018-12-10T04:02:40.039Z,100161.97
2018-12-10T04:05:07.524Z,100164.52
2018-12-10T04:07:34.988Z,100168.36
2018-12-10T04:10:02.670Z,100176.60
2018-12-10T04:12:30.187Z,100183.56
2018-12-10T04:14:57.582Z,100180.45
2018-12-10T04:17:25.093Z,100178.34
2018-12-10T04:19:52.553Z,100173.13
2018-12-10T04:22:19.933Z,100173.40
2018-12-10T04:24:47.315Z,100176.02
2018-12-10T04:27:14.699Z,100181.75
2018-12-10T04:29:42.130Z,100189.08
2018-12-10T04:32:09.528Z,100187.11
2018-12-10T04:34:36.980Z,100195.23
2018-12-10T04:37:04.547Z,100201.77
2018-12-10T04:39:31.997Z,100208.41
2018-12-10T04:41:59.458Z,100217.17
2018-12-10T04:44:26.870Z,100226.59
2018-12-10T04:46:54.263Z,100248.08
2018-12-10T04:49:21.649Z,100252.41
2018-12-10T04:51:49.034Z,100240.41
2018-12-10T04:54:16.517Z,100248.89
2018-12-10T04:56:43.986Z,100255.86
2018-12-10T04:59:11.414Z,100256.50
2018-12-10T05:01:38.797Z,100254.02
2018-12-10T05:04:06.264Z,100253.87
2018-12-10T05:06:33.647Z,100254.78
2018-12-10T05:09:01.069Z,100256.80
2018-12-10T05:11:28.535Z,100250.68
2018-12-10T05:13:55.981Z,100245.53
2018-12-10T05:16:23.439Z,100240.88
2018-12-10T05:18:50.818Z,100248.36
2018-12-10T05:21:18.207Z,100245.03
2018-12-10T05:23:45.591Z,100248.30
2018-12-10T05:26:12.977Z,100248.31
2018-12-10T05:28:40.358Z,100255.17
2018-12-10T05:31:07.783Z,100257.13
2018-12-10T05:33:35.158Z,100267.81
2018-12-10T05:36:02.549Z,100289.84
2018-12-10T05:38:29.926Z,100289.80
2018-12-10T05:40:57.399Z,100280.88
2018-12-10T05:43:24.865Z,100284.62
2018-12-10T05:45:52.322Z,100289.58
2018-12-10T05:48:19.711Z,100301.91
2018-12-10T05:50:47.233Z,100302.89
2018-12-10T05:53:14.775Z,100300.91
2018-12-10T05:55:42.213Z,100297.30
2018-12-10T05:58:09.698Z,100301.48
2018-12-10T06:00:37.153Z,100291.11
2018-12-10T06:03:04.610Z,100291.80
2018-12-10T06:05:32.004Z,100294.08
2018-12-10T06:07:59.395Z,100293.23
2018-12-10T06:10:26.878Z,100302.81
2018-12-10T06:12:54.306Z,100307.17
2018-12-10T06:15:21.714Z,100307.77
2018-12-10T06:17:49.159Z,100317.60
2018-12-10T06:20:16.634Z,100297.05
2018-12-10T06:22:44.282Z,100301.45
2018-12-10T06:25:11.668Z,100308.48
2018-12-10T06:27:39.119Z,100313.91
2018-12-10T06:30:06.842Z,100305.99
2018-12-10T06:32:34.270Z,100313.84
2018-12-10T06:35:01.742Z,100315.45
2018-12-10T06:37:37.416Z,100307.91
2018-12-10T06:39:58.790Z,100311.63
2018-12-10T06:42:26.270Z,100309.30
2018-12-10T06:44:53.792Z,100321.67
2018-12-10T06:47:21.328Z,100331.66
2018-12-10T06:49:48.758Z,100335.66
2018-12-10T06:52:16.198Z,100331.95
2018-12-10T06:54:43.670Z,100330.70
2018-12-10T06:57:11.062Z,100341.27
2018-12-10T06:59:38.454Z,100352.43
2018-12-10T07:02:05.913Z,100343.63
2018-12-10T07:04:33.494Z,100341.70
2018-12-10T07:07:00.961Z,100339.04
2018-12-10T07:09:28.407Z,100351.25
2018-12-10T07:11:55.809Z,100357.89
2018-12-10T07:14:23.213Z,100354.81
2018-12-10T07:16:50.680Z,100357.27
2018-12-10T07:19:18.137Z,100355.73
2018-12-10T07:21:45.546Z,100361.19
2018-12-10T07:24:12.959Z,100354.08
2018-12-10T07:26:40.354Z,100368.28
2018-12-10T07:29:07.734Z,100368.90
2018-12-10T07:31:35.218Z,100369.16
2018-12-10T07:34:02.692Z,100373.50
2018-12-10T07:36:30.126Z,100379.34
2018-12-10T07:38:57.572Z,100379.50
2018-12-10T07:41:25.039Z,100384.39
2018-12-10T07:43:52.497Z,100391.72
2018-12-10T07:46:19.882Z,100394.83
2018-12-10T07:48:47.270Z,100397.12
2018-12-10T07:51:14.760Z,100395.80
2018-12-10T07:53:42.222Z,100405.27
2018-12-10T07:56:09.674Z,100412.56
2018-12-10T07:58:37.067Z,100407.27
2018-12-10T08:01:04.490Z,100405.39
2018-12-10T08:03:31.882Z,100408.98
2018-12-10T08:05:59.274Z,100421.19
2018-12-10T08:08:26.735Z,100424.13
2018-12-10T08:10:54.122Z,100426.48
2018-12-10T08:13:21.570Z,100422.95
2018-12-10T08:15:48.954Z,100436.50
2018-12-10T08:18:16.378Z,100452.21
2018-12-10T08:20:43.761Z,100446.82
2018-12-10T08:23:11.186Z,100448.91
2018-12-10T08:25:38.563Z,100448.78
2018-12-10T08:28:05.971Z,100446.58
2018-12-10T08:30:33.619Z,100450.59
2018-12-10T08:33:01.118Z,100459.11
2018-12-10T08:35:28.582Z,100454.23
2018-12-10T08:37:56.033Z,100447.35
2018-12-10T08:40:23.555Z,100451.27
2018-12-10T08:42:51.097Z,100460.69
2018-12-10T08:45:18.611Z,100464.45
2018-12-10T08:47:46.062Z,100460.20
2018-12-10T08:50:13.522Z,100456.78
2018-12-10T08:52:40.980Z,100457.50
2018-12-10T08:55:08.446Z,100446.18
2018-12-10T08:57:36.098Z,100452.02
2018-12-10T09:00:05.001Z,100462.32
2018-12-10T09:02:32.382Z,100461.06
2018-12-10T09:04:59.774Z,100465.61
2018-12-10T09:07:27.259Z,100483.39
2018-12-10T09:09:54.714Z,100473.63
2018-12-10T09:12:22.105Z,100481.31
2018-12-10T09:14:49.522Z,100473.70
2018-12-10T09:17:16.977Z,100483.14
2018-12-10T09:19:44.370Z,100482.27
2018-12-10T09:22:11.742Z,100485.42
2018-12-10T09:24:39.155Z,100479.91
2018-12-10T09:27:06.713Z,100476.16
2018-12-10T09:29:34.202Z,100477.87
2018-12-10T09:32:01.734Z,100485.70
2018-12-10T09:34:29.174Z,100487.47
2018-12-10T09:36:56.563Z,100483.17
2018-12-10T09:39:23.991Z,100488.54
2018-12-10T09:41:51.375Z,100481.09
2018-12-10T09:44:18.802Z,100482.83
2018-12-10T09:46:46.281Z,100487.17
2018-12-10T09:49:13.727Z,100497.42
2018-12-10T09:51:42.932Z,100497.59
2018-12-10T09:54:10.551Z,100497.28
2018-12-10T09:56:37.930Z,100504.94
2018-12-10T09:59:05.318Z,100500.68
2018-12-10T10:01:32.743Z,100505.63
2018-12-10T10:04:00.137Z,100499.85
2018-12-10T10:06:27.527Z,100498.52
2018-12-10T10:08:54.923Z,100513.41
2018-12-10T10:11:22.410Z,100510.01
2018-12-10T10:13:49.832Z,100511.20
2018-12-10T10:16:17.279Z,100513.59
2018-12-10T10:18:44.737Z,100521.84
2018-12-10T10:21:12.131Z,100517.91
2018-12-10T10:23:39.555Z,100518.41
2018-12-10T10:26:06.938Z,100515.59
2018-12-10T10:28:34.358Z,100514.27
2018-12-10T10:31:01.809Z,100521.00
2018-12-10T10:33:32.416Z,100510.72
2018-12-10T10:35:58.670Z,100514.35
2018-12-10T10:38:26.135Z,100513.80
2018-12-10T10:40:53.586Z,100518.14
2018-12-10T10:43:20.980Z,100518.52
2018-12-10T10:45:48.399Z,100510.05
2018-12-10T10:48:15.858Z,100512.20
2018-12-10T10:50:43.313Z,100513.30
2018-12-10T10:53:10.769Z,100509.07
2018-12-10T10:55:38.227Z,100506.02
2018-12-10T10:58:05.615Z,100508.47
2018-12-10T11:00:38.579Z,100495.06
2018-12-10T11:03:07.864Z,100487.48
2018-12-10T11:05:35.291Z,100493.95
2018-12-10T11:08:02.731Z,100490.95
2018-12-10T11:10:30.130Z,100497.44
2018-12-10T11:12:57.599Z,100487.77
2018-12-10T11:15:25.050Z,100492.30
2018-12-10T11:17:52.516Z,100486.14
2018-12-10T11:20:19.962Z,100475.23
2018-12-10T11:22:47.425Z,100489.36
2018-12-10T11:25:14.874Z,100491.41
2018-12-10T11:27:42.334Z,100486.37
2018-12-10T11:30:09.795Z,100490.77
2018-12-10T11:32:37.246Z,100487.91
2018-12-10T11:35:04.701Z,100491.51
2018-12-10T11:37:32.836Z,100484.53
2018-12-10T11:40:00.319Z,100477.71
2018-12-10T11:42:27.792Z,100479.94
2018-12-10T11:44:55.346Z,100488.02
2018-12-10T11:47:22.806Z,100483.23
2018-12-10T11:49:50.270Z,100480.41
2018-12-10T11:52:17.668Z,100474.05
2018-12-10T11:54:45.046Z,100475.82
2018-12-10T11:57:12.498Z,100470.83
2018-12-10T11:59:39.890Z,100472.89
2018-12-10T12:02:07.291Z,100469.81
2018-12-10T12:04:34.671Z,100463.77
2018-12-10T12:07:02.072Z,100466.70
2018-12-10T12:09:29.458Z,100470.51
2018-12-10T12:11:56.850Z,100480.30
2018-12-10T12:14:24.234Z,100484.87
2018-12-10T12:16:51.622Z,100472.91
2018-12-10T12:19:19.003Z,100472.42
2018-12-10T12:21:46.394Z,100468.78
2018-12-10T12:24:13.778Z,100467.20
2018-12-10T12:26:41.203Z,100481.78
2018-12-10T12:29:08.658Z,100469.39
2018-12-10T12:31:36.037Z,100465.25
2018-12-10T12:34:03.477Z,100467.52
2018-12-10T12:36:30.867Z,100479.49
2018-12-10T12:38:58.249Z,100465.23
2018-12-10T12:41:25.634Z,100472.98
2018-12-10T12:43:53.086Z,100466.94
2018-12-10T12:46:20.656Z,100460.63
2018-12-10T12:48:48.113Z,100464.53
2018-12-10T12:51:15.498Z,100465.98
2018-12-10T12:53:42.924Z,100459.88
2018-12-10T12:56:10.374Z,100462.90
2018-12-10T12:58:37.835Z,100470.35
2018-12-10T13:01:05.216Z,100472.28
2018-12-10T13:03:32.646Z,100469.77
2018-12-10T13:06:06.752Z,100468.92
2018-12-10T13:08:31.152Z,100466.25
2018-12-10T13:10:58.810Z,100466.84
2018-12-10T13:13:26.258Z,100463.59
2018-12-10T13:15:53.723Z,100467.06
2018-12-10T13:18:21.173Z,100457.87
2018-12-10T13:20:48.562Z,100450.27
2018-12-10T13:23:15.950Z,100457.45
2018-12-10T13:25:43.342Z,100465.32
2018-12-10T13:28:10.802Z,100465.95
2018-12-10T13:30:38.305Z,100450.11
2018-12-10T13:33:05.927Z,100443.53
2018-12-10T13:38:04.463Z,100430.08
2018-12-10T13:40:31.255Z,100437.63
2018-12-10T13:42:58.654Z,100450.63
2018-12-10T13:45:30.996Z,100449.02
2018-12-10T13:47:55.546Z,100454.34
2018-12-10T13:50:23.009Z,100459.73
2018-12-10T13:52:50.491Z,100454.83
2018-12-10T13:55:17.969Z,100462.22
2018-12-10T13:57:45.425Z,100464.13
2018-12-10T14:00:12.818Z,100461.33
2018-12-10T14:02:40.217Z,100465.49
2018-12-10T14:05:09.506Z,100461.13
2018-12-10T14:07:36.970Z,100471.05
2018-12-10T14:10:05.154Z,100479.76
2018-12-10T14:12:32.538Z,100484.42
2018-12-10T14:14:59.963Z,100483.85
2018-12-10T14:17:27.427Z,100492.28
2018-12-10T14:19:54.869Z,100476.56
2018-12-10T14:22:22.259Z,100488.84
2018-12-10T14:24:49.643Z,100483.00
2018-12-10T14:27:17.041Z,100482.31
2018-12-10T14:29:44.494Z,100478.25
2018-12-10T14:32:11.886Z,100474.59
2018-12-10T14:34:39.266Z,100475.89
2018-12-10T14:37:06.649Z,100482.64
2018-12-10T14:39:34.075Z,100484.28
2018-12-10T14:42:01.469Z,100484.80
2018-12-10T14:44:28.947Z,100492.06
2018-12-10T14:46:56.386Z,100510.55
2018-12-10T14:49:23.786Z,100503.17
2018-12-10T14:51:51.171Z,100515.12
2018-12-10T14:54:18.567Z,100520.39
2018-12-10T14:56:46.014Z,100506.72
2018-12-10T14:59:13.487Z,100507.47
2018-12-10T15:01:40.873Z,100512.14
2018-12-10T15:04:08.272Z,100496.91
2018-12-10T15:06:35.650Z,100500.19
2018-12-10T15:09:04.371Z,100487.42
2018-12-10T15:11:31.774Z,100489.67
2018-12-10T15:13:59.209Z,100492.65
2018-12-10T15:16:26.705Z,100486.68
2018-12-10T15:18:54.251Z,100494.11
2018-12-10T15:21:21.706Z,100509.58
2018-12-10T15:23:49.165Z,100503.84
2018-12-10T15:26:16.618Z,100522.53
2018-12-10T15:28:43.993Z,100500.38
2018-12-10T15:31:11.400Z,100499.75
2018-12-10T15:33:38.825Z,100486.85
2018-12-10T15:36:06.247Z,100484.87
2018-12-10T15:38:33.693Z,100478.25
2018-12-10T15:41:01.083Z,100473.95
2018-12-10T15:43:28.463Z,100486.73
2018-12-10T15:45:55.866Z,100481.58
2018-12-10T15:48:23.254Z,100482.34
2018-12-10T15:50:50.680Z,100473.49
2018-12-10T15:53:18.058Z,100486.18
2018-12-10T15:55:45.462Z,100492.30
2018-12-10T15:58:12.842Z,100474.22
2018-12-10T16:00:40.231Z,100483.31
2018-12-10T16:03:07.618Z,100479.48
2018-12-10T16:05:35.010Z,100485.38
2018-12-10T16:08:02.471Z,100479.34
2018-12-10T16:10:29.863Z,100480.02
2018-12-10T16:12:57.274Z,100485.55
2018-12-10T16:15:24.678Z,100486.36
2018-12-10T16:17:52.066Z,100491.03
2018-12-10T16:20:19.461Z,100487.03
2018-12-10T16:22:47.105Z,100477.16
2018-12-10T16:25:14.518Z,100471.21
2018-12-10T16:27:42.105Z,100473.83
2018-12-10T16:30:09.587Z,100485.77
2018-12-10T16:32:36.974Z,100488.62
2018-12-10T16:35:04.497Z,100477.13
2018-12-10T16:37:31.950Z,100479.39
2018-12-10T16:39:59.331Z,100492.42
2018-12-10T16:42:26.758Z,100490.19
2018-12-10T16:44:54.220Z,100493.82
2018-12-10T16:47:21.632Z,100491.58
2018-12-10T16:49:49.135Z,100500.59
2018-12-10T16:52:16.592Z,100496.00
2018-12-10T16:54:44.047Z,100491.77
2018-12-10T16:57:11.434Z,100496.77
2018-12-10T16:59:38.853Z,100488.88
2018-12-10T17:02:06.517Z,100487.83
2018-12-10T17:04:33.906Z,100486.82
2018-12-10T17:07:01.330Z,100507.06
2018-12-10T17:09:29.115Z,100509.62
2018-12-10T17:11:56.810Z,100517.35
2018-12-10T17:14:24.201Z,100511.32
2018-12-10T17:16:51.676Z,100520.89
2018-12-10T17:19:19.138Z,100530.89
2018-12-10T17:21:46.684Z,100533.84
2018-12-10T17:24:14.134Z,100529.02
2018-12-10T17:26:41.598Z,100524.17
2018-12-10T17:29:09.059Z,100520.87
2018-12-10T17:31:36.510Z,100530.30
2018-12-10T17:34:03.937Z,100528.91
2018-12-10T17:36:31.426Z,100514.69
2018-12-10T17:38:58.895Z,100519.50
2018-12-10T17:41:26.332Z,100529.67
2018-12-10T17:43:53.798Z,100531.02
2018-12-10T17:46:21.181Z,100526.38
2018-12-10T17:48:48.611Z,100522.79
2018-12-10T17:51:16.058Z,100519.29
2018-12-10T17:53:43.884Z,100522.07
2018-12-10T17:56:11.379Z,100520.18
2018-12-10T17:58:38.778Z,100526.96
2018-12-10T18:01:06.179Z,100530.42
2018-12-10T18:03:33.658Z,100536.12
2018-12-10T18:06:01.051Z,100530.04
2018-12-10T18:08:28.467Z,100529.75
2018-12-10T18:10:55.858Z,100531.69
2018-12-10T18:13:23.276Z,100525.27
2018-12-10T18:15:50.746Z,100519.53
2018-12-10T18:18:18.138Z,100513.89
2018-12-10T18:20:45.519Z,100526.06
2018-12-10T18:23:12.919Z,100522.31
2018-12-10T18:25:40.306Z,100512.45
2018-12-10T18:28:07.702Z,100515.95
2018-12-10T18:30:35.298Z,100509.13
2018-12-10T18:33:02.702Z,100509.80
2018-12-10T18:35:30.152Z,100510.77
2018-12-10T18:37:58.121Z,100529.19
2018-12-10T18:40:25.713Z,100522.41
2018-12-10T18:42:53.216Z,100537.98
2018-12-10T18:45:20.626Z,100538.44
2018-12-10T18:47:48.078Z,100539.70
2018-12-10T18:50:15.466Z,100529.25
2018-12-10T18:52:42.845Z,100540.88
2018-12-10T18:55:10.250Z,100539.37
2018-12-10T18:57:37.707Z,100557.36
2018-12-10T19:00:09.010Z,100557.38
2018-12-10T19:02:36.815Z,100558.56
2018-12-10T19:05:05.706Z,100561.19
2018-12-10T19:07:33.498Z,100543.42
2018-12-10T19:10:00.901Z,100539.75
2018-12-10T19:12:28.606Z,100539.50
2018-12-10T19:14:56.226Z,100539.20
2018-12-10T19:17:23.752Z,100533.38
2018-12-10T19:19:51.399Z,100521.48
2018-12-10T19:22:18.851Z,100527.73
2018-12-10T19:24:46.410Z,100528.27
2018-12-10T19:27:14.061Z,100510.64
2018-12-10T19:29:42.014Z,100512.54
2018-12-10T19:32:09.494Z,100527.52
2018-12-10T19:34:36.975Z,100546.33
2018-12-10T19:37:04.470Z,100538.39
2018-12-10T19:39:31.864Z,100545.06
2018-12-10T19:41:59.323Z,100542.33
2018-12-10T19:44:26.779Z,100543.41
2018-12-10T19:46:54.275Z,100543.50
2018-12-10T19:49:21.783Z,100543.80
2018-12-10T19:51:49.161Z,100538.81
2018-12-10T19:54:16.631Z,100536.55
2018-12-10T19:56:44.048Z,100528.23
2018-12-10T19:59:11.532Z,100539.41
2018-12-10T20:01:39.078Z,100537.34
2018-12-10T20:04:06.528Z,100545.19
2018-12-10T20:06:35.835Z,100542.07
2018-12-10T20:09:06.143Z,100543.72
2018-12-10T20:11:33.538Z,100537.17
2018-12-10T20:14:01.018Z,100544.05
2018-12-10T20:16:28.413Z,100545.19
2018-12-10T20:18:55.866Z,100544.52
2018-12-10T20:21:23.346Z,100544.92
2018-12-10T20:23:50.733Z,100550.10
2018-12-10T20:26:18.134Z,100555.27
2018-12-10T20:28:45.704Z,100549.31
2018-12-10T20:31:13.157Z,100549.74
2018-12-10T20:33:40.631Z,100543.16
2018-12-10T20:36:08.026Z,100541.17
2018-12-10T20:38:35.507Z,100544.00
2018-12-10T20:41:02.970Z,100537.13
2018-12-10T20:43:30.426Z,100543.88
2018-12-10T20:45:57.906Z,100544.98
2018-12-10T20:48:25.354Z,100555.44
2018-12-10T20:50:52.838Z,100564.03
2018-12-10T20:53:20.994Z,100573.69
2018-12-10T20:55:48.439Z,100568.97
2018-12-10T20:58:15.907Z,100567.36
2018-12-10T21:00:43.355Z,100567.95
2018-12-10T21:03:10.806Z,100571.93
2018-12-10T21:05:40.186Z,100580.25
2018-12-10T21:08:07.649Z,100589.12
2018-12-10T21:10:35.034Z,100586.95
2018-12-10T21:13:02.543Z,100582.73
2018-12-10T21:15:30.110Z,100573.06
2018-12-10T21:17:57.594Z,100578.59
2018-12-10T21:20:25.022Z,100580.29
2018-12-10T21:22:52.406Z,100581.94
2018-12-10T21:25:19.874Z,100578.78
2018-12-10T21:27:47.333Z,100579.87
2018-12-10T21:30:14.784Z,100582.07
2018-12-10T21:32:42.179Z,100589.75
2018-12-10T21:35:09.585Z,100590.09
2018-12-10T21:37:36.983Z,100591.69
2018-12-10T21:40:04.570Z,100609.33
2018-12-10T21:42:31.968Z,100609.50
2018-12-10T21:44:59.359Z,100597.89
2018-12-10T21:47:26.741Z,100596.58
2018-12-10T21:49:54.170Z,100604.77
2018-12-10T21:52:21.592Z,100608.91
2018-12-10T21:54:49.011Z,100613.05
2018-12-10T21:57:16.433Z,100609.75
2018-12-10T21:59:43.870Z,100612.83
2018-12-10T22:02:11.345Z,100612.16
2018-12-10T22:04:38.734Z,100606.84
2018-12-10T22:07:06.146Z,100610.26
2018-12-10T22:09:33.584Z,100608.27
2018-12-10T22:12:00.970Z,100601.14
2018-12-10T22:14:28.346Z,100602.78
2018-12-10T22:16:55.754Z,100604.55
2018-12-10T22:19:23.203Z,100605.35
2018-12-10T22:21:50.663Z,100602.28
2018-12-10T22:24:18.114Z,100600.24
2018-12-10T22:26:45.490Z,100606.78
2018-12-10T22:29:12.922Z,100624.34
2018-12-10T22:31:40.674Z,100619.78
2018-12-10T22:34:08.081Z,100614.68
2018-12-10T22:36:35.497Z,100621.73
2018-12-10T22:39:04.103Z,100629.16
2018-12-10T22:41:31.510Z,100635.53
2018-12-10T22:43:58.893Z,100623.77
2018-12-10T22:46:26.453Z,100631.41
2018-12-10T22:48:54.150Z,100630.47
2018-12-10T22:51:21.574Z,100628.61
2018-12-10T22:53:48.962Z,100632.00
2018-12-10T22:56:16.367Z,100631.61
2018-12-10T22:58:43.791Z,100627.73
2018-12-10T23:01:11.183Z,100631.45
2018-12-10T23:03:38.679Z,100634.15
2018-12-10T23:06:06.921Z,100628.36
2018-12-10T23:08:34.386Z,100631.83
2018-12-10T23:11:01.767Z,100628.41
2018-12-10T23:13:29.155Z,100628.88
2018-12-10T23:15:56.542Z,100631.61
2018-12-10T23:18:23.986Z,100636.52
2018-12-10T23:20:51.383Z,100637.71
2018-12-10T23:23:18.847Z,100630.36
2018-12-10T23:25:46.222Z,100636.18
2018-12-10T23:28:13.640Z,100630.52
2018-12-10T23:30:41.082Z,100637.87
2018-12-10T23:33:08.534Z,100641.71
2018-12-10T23:35:35.937Z,100637.45
2018-12-10T23:38:03.374Z,100641.53
2018-12-10T23:40:30.826Z,100642.61
2018-12-10T23:43:03.766Z,100647.33
2018-12-10T23:45:31.253Z,100652.06
2018-12-10T23:47:58.715Z,100656.94
2018-12-10T23:50:26.114Z,100657.79
2018-12-10T23:52:53.501Z,100659.94
2018-12-10T23:55:20.894Z,100668.20
2018-12-10T23:57:48.282Z,100658.83
